Terminal Aerodrome Forecast
Issued by NWS

Home | Current Version | Previous Version | Text Only | Print | Product List | Glossary On
Versions: 1 2 3 4 5 6 7 8 9 10 11 12 13 14 15 16 17
000
FTUS43 KDTX 212320
TAFMBS
TAF
KMBS 212320Z 2200/2224 07005KT 3SM BR OVC030
     FM220200 07005KT 2SM -DZ BR OVC015
     FM220500 05010KT 1SM -DZ BR OVC006
     FM221000 08010KT 1/2SM RA FG VV003
     FM222300 18010KT 2SM -SHRA BR OVC008=

USA.gov is the U.S. government's official web portal to all federal, state and local government web resources and services.